Latest Weather Observations for Thursday Island

IDQ60801

Issued at 1:22 pm EST Friday 17 September 2021 (issued every 10 minutes, with the page automatically refreshed every 10 minutes)

About weather observations | Map of weather stations | Latest weather observations for QLD | Other Formats
Station Details ID: 200892 Name: TORRES STRAIT NTC AWS Lat: -10.59 Lon: 142.22 Height: 3.0 m
Data from the previous 72 hours. | See also: Recent months for locations in Queensland
Date/Time
EST
Temp
°C
App
Temp
°C
Dew
Point
°C
Rel
Hum
%
Delta-T
°C
Wind Press
QNH
hPa
Press
MSL
hPa
Rain since
9am
mm
Dir  Spd
km/h
Gust
km/h
Spd
kts
Gust
kts
17/01:05pm 26.8 - - - - ESE 44 63 24 34 1011.9 1011.9 -
17/01:00pm 26.5 - - - - ESE 48 63 26 34 1011.9 1011.9 -
17/12:34pm 26.7 - - - - ESE 44 63 24 34 1012.4 1012.4 -
17/12:30pm 26.5 - - - - ESE 46 63 25 34 1012.6 1012.6 -
17/12:23pm 26.5 - - - - ESE 44 63 24 34 1012.7 1012.7 -
17/12:00pm 26.7 - - - - ESE 48 67 26 36 1013.1 1013.1 -
17/11:30am 26.5 - - - - ESE 46 67 25 36 1013.3 1013.3 -
17/11:13am 26.4 - - - - ESE 46 65 25 35 1013.6 1013.6 -
17/11:00am 26.5 - - - - ESE 44 57 24 31 1013.8 1013.8 -
17/10:35am 26.3 - - - - ESE 46 65 25 35 1013.8 1013.8 -
17/10:30am 26.3 - - - - ESE 46 61 25 33 1014.0 1014.0 -
17/10:00am 26.2 - - - - ESE 44 56 24 30 1013.8 1013.8 -
17/09:30am 26.3 - - - - ESE 46 56 25 30 1013.7 1013.7 -
17/09:00am 26.1 - - - - ESE 41 52 22 28 1013.8 1013.8 -
17/08:30am 25.9 - - - - ESE 39 54 21 29 1013.6 1013.6 -
17/08:00am 25.8 - - - - ESE 43 59 23 32 1013.1 1013.1 -
17/07:30am 25.6 - - - - ESE 35 48 19 26 1012.5 1012.5 -
17/07:00am 25.3 - - - - ESE 33 43 18 23 1012.1 1012.1 -
17/06:30am 25.3 - - - - ESE 32 41 17 22 1011.9 1011.9 -
17/06:00am 25.3 - - - - ESE 33 44 18 24 1011.5 1011.5 -
17/05:30am 25.3 - - - - ESE 32 41 17 22 1011.0 1011.0 -
17/05:00am 25.2 - - - - ESE 33 48 18 26 1011.0 1011.0 -
17/04:41am 25.3 - - - - ESE 35 54 19 29 1010.8 1010.8 -
17/04:30am 25.3 - - - - ESE 33 43 18 23 1010.9 1010.9 -
17/04:00am 25.4 - - - - ESE 35 46 19 25 1011.0 1011.0 -
17/03:30am 25.4 - - - - ESE 33 50 18 27 1011.0 1011.0 -
17/03:00am 25.3 - - - - ESE 32 46 17 25 1011.1 1011.1 -
17/02:30am 25.5 - - - - ESE 39 50 21 27 1011.5 1011.5 -
17/02:00am 25.5 - - - - ESE 33 41 18 22 1012.1 1012.1 -
17/01:30am 25.5 - - - - ESE 32 46 17 25 1012.3 1012.3 -
17/01:00am 25.5 - - - - ESE 37 50 20 27 1012.7 1012.7 -
17/12:52am 25.4 - - - - ESE 35 54 19 29 1012.8 1012.8 -
17/12:30am 25.6 - - - - ESE 44 56 24 30 1013.0 1013.0 -
17/12:07am 25.4 - - - - ESE 28 46 15 25 1013.2 1013.2 -
17/12:00am 25.4 - - - - ESE 26 33 14 18 1013.2 1013.2 -
 
Date/Time
EST
Temp
°C
App
Temp
°C
Dew
Point
°C
Rel
Hum
%
Delta-T
°C
Wind Press
QNH
hPa
Press
MSL
hPa
Rain since
9am
mm
Dir  Spd
km/h
Gust
km/h
Spd
kts
Gust
kts
16/11:30pm 25.6 - - - - ESE 37 48 20 26 1013.5 1013.5 -
16/11:00pm 25.6 - - - - ESE 28 44 15 24 1013.5 1013.5 -
16/10:30pm 25.5 - - - - ESE 28 37 15 20 1013.3 1013.3 -
16/10:00pm 25.5 - - - - ESE 24 35 13 19 1013.2 1013.2 -
16/09:30pm 25.5 - - - - ESE 32 43 17 23 1012.8 1012.8 -
16/09:00pm 25.4 - - - - SE 32 41 17 22 1012.6 1012.6 -
16/08:30pm 25.7 - - - - SE 37 48 20 26 1012.3 1012.3 -
16/08:00pm 25.5 - - - - SE 28 37 15 20 1011.9 1011.9 -
16/07:30pm 25.6 - - - - SE 30 44 16 24 1011.6 1011.6 -
16/07:00pm 25.8 - - - - SE 33 43 18 23 1011.2 1011.2 -
16/06:30pm 25.9 - - - - SE 39 50 21 27 1010.9 1010.9 -
16/06:00pm 26.2 - - - - ESE 41 52 22 28 1010.7 1010.7 -
16/05:30pm 26.4 - - - - SE 39 52 21 28 1010.3 1010.3 -
16/05:00pm 26.5 - - - - SE 43 56 23 30 1010.1 1010.1 -
16/04:30pm 26.7 - - - - ESE 43 61 23 33 1009.9 1009.9 -
16/04:02pm 26.6 - - - - ESE 43 61 23 33 1009.9 1009.9 -
16/04:00pm 26.5 - - - - ESE 44 61 24 33 1010.0 1010.0 -
16/03:30pm 26.5 - - - - ESE 44 59 24 32 1010.2 1010.2 -
16/03:00pm 26.6 - - - - ESE 44 57 24 31 1010.6 1010.6 -
16/02:30pm 26.9 - - - - ESE 39 54 21 29 1010.8 1010.8 -
16/02:00pm 26.9 - - - - ESE 39 56 21 30 1011.1 1011.1 -
16/01:42pm 26.8 - - - - ESE 39 59 21 32 1011.5 1011.5 -
16/01:30pm 26.8 - - - - ESE 41 56 22 30 1011.7 1011.7 -
16/01:00pm 26.6 - - - - SE 43 57 23 31 1012.0 1012.0 -
16/12:30pm 27.1 - - - - ESE 41 56 22 30 1012.1 1012.1 -
16/12:16pm 26.7 - - - - ESE 41 59 22 32 1012.3 1012.3 -
16/12:00pm 26.9 - - - - ESE 43 52 23 28 1012.5 1012.5 -
16/11:32am 26.7 - - - - ESE 44 63 24 34 1013.1 1013.1 -
16/11:30am 26.8 - - - - ESE 46 63 25 34 1013.1 1013.1 -
16/11:00am 26.8 - - - - ESE 41 52 22 28 1013.6 1013.6 -
16/10:30am 26.5 - - - - ESE 43 54 23 29 1014.0 1014.0 -
16/10:00am 26.4 - - - - ESE 41 52 22 28 1014.1 1014.1 -
16/09:30am 26.4 - - - - ESE 44 57 24 31 1013.9 1013.9 -
16/09:00am 26.3 - - - - ESE 35 50 19 27 1014.0 1014.0 -
16/08:30am 26.1 - - - - ESE 35 54 19 29 1013.6 1013.6 -
16/08:00am 26.0 - - - - ESE 33 46 18 25 1013.0 1013.0 -
16/07:44am 26.0 - - - - ESE 32 54 17 29 1013.1 1013.1 -
16/07:30am 25.9 - - - - ESE 35 46 19 25 1012.9 1012.9 -
16/07:00am 25.8 - - - - ESE 30 39 16 21 1012.4 1012.4 -
16/06:30am 25.7 - - - - ESE 33 44 18 24 1012.0 1012.0 -
16/06:16am 25.6 - - - - ESE 32 50 17 27 1012.0 1012.0 -
16/06:00am 25.6 - - - - ESE 33 50 18 27 1011.7 1011.7 -
16/05:30am 25.6 - - - - ESE 32 43 17 23 1011.5 1011.5 -
16/05:00am 25.5 - - - - ESE 26 33 14 18 1011.2 1011.2 -
16/04:30am 25.6 - - - - ESE 32 44 17 24 1011.0 1011.0 -
16/04:00am 25.6 - - - - ESE 30 39 16 21 1011.0 1011.0 -
16/03:30am 25.7 - - - - ESE 30 39 16 21 1011.1 1011.1 -
16/03:00am 25.6 - - - - SE 28 35 15 19 1011.2 1011.2 -
16/02:30am 25.7 - - - - SE 28 35 15 19 1011.4 1011.4 -
16/02:00am 25.8 - - - - ESE 30 43 16 23 1011.6 1011.6 -
16/01:38am 25.9 - - - - ESE 30 48 16 26 1011.7 1011.7 -
16/01:30am 25.8 - - - - ESE 28 35 15 19 1011.8 1011.8 -
16/01:00am 26.0 - - - - ESE 32 44 17 24 1011.9 1011.9 -
16/12:30am 25.9 - - - - SE 28 43 15 23 1012.3 1012.3 -
16/12:00am 26.1 - - - - ESE 32 43 17 23 1012.7 1012.7 -
 
Date/Time
EST
Temp
°C
App
Temp
°C
Dew
Point
°C
Rel
Hum
%
Delta-T
°C
Wind Press
QNH
hPa
Press
MSL
hPa
Rain since
9am
mm
Dir  Spd
km/h
Gust
km/h
Spd
kts
Gust
kts
15/11:30pm 26.1 - - - - ESE 28 39 15 21 1012.9 1012.9 -
15/11:00pm 26.1 - - - - SE 26 37 14 20 1013.2 1013.2 -
15/10:30pm 26.3 - - - - ESE 32 43 17 23 1013.2 1013.2 -
15/10:00pm 26.3 - - - - ESE 35 44 19 24 1013.2 1013.2 -
15/09:30pm 26.4 - - - - ESE 32 44 17 24 1013.0 1013.0 -
15/09:00pm 26.3 - - - - SE 32 44 17 24 1012.7 1012.7 -
15/08:30pm 26.3 - - - - ESE 33 44 18 24 1012.6 1012.6 -
15/08:00pm 26.3 - - - - ESE 32 41 17 22 1012.5 1012.5 -
15/07:30pm 26.4 - - - - ESE 32 46 17 25 1012.2 1012.2 -
15/07:00pm 26.4 - - - - ESE 33 46 18 25 1011.8 1011.8 -
15/06:30pm 26.6 - - - - SE 32 44 17 24 1011.3 1011.3 -
15/06:00pm 26.7 - - - - ESE 37 46 20 25 1010.9 1010.9 -
15/05:30pm 27.1 - - - - ESE 35 43 19 23 1010.6 1010.6 -
15/05:00pm 27.3 - - - - ESE 37 50 20 27 1010.6 1010.6 -
15/04:30pm 27.6 - - - - ESE 37 50 20 27 1010.4 1010.4 -
15/04:00pm 27.7 - - - - ESE 37 50 20 27 1010.5 1010.5 -
15/03:30pm 27.7 - - - - SE 39 50 21 27 1010.6 1010.6 -
15/03:00pm 27.7 - - - - ESE 39 52 21 28 1010.9 1010.9 -
15/02:30pm 27.7 - - - - ESE 35 48 19 26 1011.0 1011.0 -
15/02:00pm 27.7 - - - - SE 39 50 21 27 1011.1 1011.1 -
15/09:30am 27.1 - - - - - - - - - 1013.3 1013.3 -
15/09:00am 26.9 - - - - - - - - - 1013.1 1013.1 -
15/08:30am 26.8 - - - - - - - - - 1012.9 1012.9 -
15/08:00am 26.6 - - - - - - - - - 1012.5 1012.5 -
15/07:30am 26.5 - - - - - - - - - 1012.3 1012.3 -
15/07:00am 26.6 - - - - - - - - - 1011.8 1011.8 -
15/06:30am 26.4 - - - - - - - - - 1011.4 1011.4 -
15/06:00am 26.5 - - - - - - - - - 1011.3 1011.3 -
15/05:30am 26.5 - - - - - - - - - 1011.0 1011.0 -
15/05:00am 26.2 - - - - - - - - - 1010.8 1010.8 -
15/04:30am 26.0 - - - - - - - - - 1010.7 1010.7 -
15/04:00am 25.9 - - - - - - - - - 1010.5 1010.5 -
15/03:30am 25.9 - - - - - - - - - 1010.6 1010.6 -
15/03:00am 25.9 - - - - - - - - - 1010.8 1010.8 -
15/02:30am 26.1 - - - - - - - - - 1010.9 1010.9 -
15/02:00am 26.1 - - - - - - - - - 1011.1 1011.1 -
15/01:30am 26.2 - - - - - - - - - 1011.4 1011.4 -
15/01:00am 26.3 - - - - - - - - - 1011.6 1011.6 -
15/12:30am 26.4 - - - - - - - - - 1012.1 1012.1 -
15/12:00am 26.5 - - - - - - - - - 1012.3 1012.3 -
 
Date/Time
EST
Temp
°C
App
Temp
°C
Dew
Point
°C
Rel
Hum
%
Delta-T
°C
Wind Press
QNH
hPa
Press
MSL
hPa
Rain since
9am
mm
Dir  Spd
km/h
Gust
km/h
Spd
kts
Gust
kts
14/11:30pm 26.4 - - - - - - - - - 1012.8 1012.8 -
14/11:00pm 26.4 - - - - - - - - - 1012.9 1012.9 -
14/10:30pm 26.3 - - - - - - - - - 1012.9 1012.9 -
14/10:00pm 26.4 - - - - - - - - - 1012.6 1012.6 -
14/09:30pm 26.5 - - - - - - - - - 1012.6 1012.6 -
14/09:00pm 26.6 - - - - - - - - - 1012.4 1012.4 -
14/08:30pm 26.6 - - - - - - - - - 1012.2 1012.2 -
14/08:00pm 26.8 - - - - - - - - - 1011.9 1011.9 -
14/07:30pm 27.0 - - - - - - - - - 1011.6 1011.6 -
14/07:00pm 27.2 - - - - - - - - - 1011.2 1011.2 -
14/06:30pm 27.3 - - - - - - - - - 1010.9 1010.9 -
14/06:00pm 27.5 - - - - - - - - - 1010.7 1010.7 -
14/05:30pm 27.6 - - - - - - - - - 1010.6 1010.6 -
14/05:00pm 27.6 - - - - - - - - - 1010.3 1010.3 -
14/04:30pm 27.7 - - - - - - - - - 1010.0 1010.0 -

Other formats

Comma delimited format used in spreadsheet applications
http://www.bom.gov.au/fwo/IDQ60801/IDQ60801.94181.axf

JavaScript Object Notation format (JSON) in row-major order
http://www.bom.gov.au/fwo/IDQ60801/IDQ60801.94181.json

Data quality

Most of these data are generated automatically and are frequently updated. Quality checks on data are not normally performed. It is possible for incorrect values to appear. Refer to information at About Latest Weather Observations and please check the disclaimer before using these data.